Le Grand, CA (95333)

5:36 AM PST on December 21, 2014 (GMT -0800)
Northeast Merced | Change Station
CLOSE
Current Station
Personal Weather Station
Location: Merced, CA
Elevation: 154 ft
Nearby Weather Stations
Active Advisory: Dense Fog Advisory

Elev 154 ft 37.32 °N, 120.45 °W | Updated 10 seconds ago

Overcast
Overcast
50.2 °F
Feels Like 50.2 °F
N
0.9
Wind Variable Wind from SSE
Gusts 1.3 mph

Today
High -- | Low -- °F
--% Chance of Precip.
Yesterday
High -- | Low -- °F
Precip. -- in
7:11 AM 4:47 PM
Waning Crescent, 0% visible
Pressure 30.25 in
Visibility 0.2 miles
Clouds
Dew Point 48 °F
Humidity 91%
Rainfall 0.00 in
Snow Depth Not available.
UV Not available.
Pollen 3.30 out of 12
Air Quality Not available.
Flu Activity Not available.
SPECI KMCE 211311Z AUTO 13004KT 1/4SM FG VV002 10/09 A3025 RMK AO2 T01000089

More Conditions Fewer Conditions

Pressure 30.25 in
Visibility 0.2 miles
Clouds
Dew Point 48 °F
Humidity 91%
Rainfall 0.00 in
Snow Depth Not available.
UV Not available.
Pollen 3.30 out of 12
Air Quality Not available.
Flu Activity Not available.
SPECI KMCE 211311Z AUTO 13004KT 1/4SM FG VV002 10/09 A3025 RMK AO2 T01000089

More Conditions Fewer Conditions

10-Day Weather Forecast

Almanac

Astronomy

Dec. 21, 2014 Rise Set
Actual Time
Civil Twilight
Nautical Twilight
Astronomical Twilight
Moon
Length of Visible Light
Length of Day
Tomorrow will be .
, % of the Moon is Illuminated

Today's Extremes

State Highs State Lows

Community

WunderPhotos

Upload Photos

1,779,386 photos uploaded!

WunderBlogs® & News

Nearby

Air Quality

  Air Quality AQ Index Pollutant
Not available.

Snow Depth

Station Depth Elevation

Earthquake Activity

City Distance Mag. Time & Date
Minimum magnitude displayed is 2.5.

Coastal Water Temperatures

Place Temperature

Nearby Weather Stations